sensor_id;sensor_type;location;lat;lon;timestamp;pressure;altitude;pressure_sealevel;temperature
69007;BMP180;56061;51.748;19.620;2022-09-09T00:02:27;98550.40;;;13.70
69007;BMP180;56061;51.748;19.620;2022-09-09T00:05:22;98551.20;;;13.70
69007;BMP180;56061;51.748;19.620;2022-09-09T00:07:54;98549.80;;;13.70
69007;BMP180;56061;51.748;19.620;2022-09-09T00:10:29;98548.00;;;13.72
69007;BMP180;56061;51.748;19.620;2022-09-09T00:21:34;98557.40;;;13.72
69007;BMP180;56061;51.748;19.620;2022-09-09T00:24:14;98554.20;;;13.70
69007;BMP180;56061;51.748;19.620;2022-09-09T00:26:51;98555.20;;;13.70
69007;BMP180;56061;51.748;19.620;2022-09-09T00:29:37;98550.20;;;13.70
69007;BMP180;56061;51.748;19.620;2022-09-09T00:32:18;98546.60;;;13.70
69007;BMP180;56061;51.748;19.620;2022-09-09T00:34:52;98543.60;;;13.70
69007;BMP180;56061;51.748;19.620;2022-09-09T00:37:24;98542.80;;;13.60
69007;BMP180;56061;51.748;19.620;2022-09-09T00:40:00;98529.80;;;13.60
69007;BMP180;56061;51.748;19.620;2022-09-09T00:42:42;98539.20;;;13.54
69007;BMP180;56061;51.748;19.620;2022-09-09T00:45:52;98535.60;;;13.60
69007;BMP180;56061;51.748;19.620;2022-09-09T00:48:43;98531.40;;;13.60
69007;BMP180;56061;51.748;19.620;2022-09-09T00:57:23;98522.00;;;13.68
69007;BMP180;56061;51.748;19.620;2022-09-09T01:06:04;98522.80;;;13.60
69007;BMP180;56061;51.748;19.620;2022-09-09T01:12:11;98537.40;;;13.54
69007;BMP180;56061;51.748;19.620;2022-09-09T01:15:26;98545.20;;;13.58
69007;BMP180;56061;51.748;19.620;2022-09-09T01:18:08;98546.40;;;13.60
69007;BMP180;56061;51.748;19.620;2022-09-09T01:20:54;98549.00;;;13.60
69007;BMP180;56061;51.748;19.620;2022-09-09T01:26:39;98547.80;;;13.60
69007;BMP180;56061;51.748;19.620;2022-09-09T01:29:15;98551.40;;;13.60
69007;BMP180;56061;51.748;19.620;2022-09-09T01:31:59;98550.80;;;13.70
69007;BMP180;56061;51.748;19.620;2022-09-09T01:34:34;98550.20;;;13.70
69007;BMP180;56061;51.748;19.620;2022-09-09T01:37:06;98555.00;;;13.70
69007;BMP180;56061;51.748;19.620;2022-09-09T01:39:36;98561.60;;;13.80
69007;BMP180;56061;51.748;19.620;2022-09-09T01:42:06;98567.00;;;13.78
69007;BMP180;56061;51.748;19.620;2022-09-09T01:44:35;98565.20;;;13.70
69007;BMP180;56061;51.748;19.620;2022-09-09T01:47:03;98571.00;;;13.70
69007;BMP180;56061;51.748;19.620;2022-09-09T01:49:30;98569.60;;;13.70
69007;BMP180;56061;51.748;19.620;2022-09-09T01:51:59;98571.00;;;13.70
69007;BMP180;56061;51.748;19.620;2022-09-09T01:54:30;98575.20;;;13.70
69007;BMP180;56061;51.748;19.620;2022-09-09T01:58:01;98583.40;;;13.70
69007;BMP180;56061;51.748;19.620;2022-09-09T02:00:16;98585.80;;;13.70
69007;BMP180;56061;51.748;19.620;2022-09-09T02:06:06;98589.60;;;13.70
69007;BMP180;56061;51.748;19.620;2022-09-09T02:09:06;98589.60;;;13.70
69007;BMP180;56061;51.748;19.620;2022-09-09T02:11:34;98588.60;;;13.70
69007;BMP180;56061;51.748;19.620;2022-09-09T02:14:07;98589.20;;;13.80
69007;BMP180;56061;51.748;19.620;2022-09-09T02:16:41;98587.60;;;13.80
69007;BMP180;56061;51.748;19.620;2022-09-09T02:19:22;98584.40;;;13.90
69007;BMP180;56061;51.748;19.620;2022-09-09T02:21:56;98587.80;;;13.90
69007;BMP180;56061;51.748;19.620;2022-09-09T02:24:26;98588.20;;;13.90
69007;BMP180;56061;51.748;19.620;2022-09-09T02:26:55;98588.00;;;13.90
69007;BMP180;56061;51.748;19.620;2022-09-09T02:29:30;98585.40;;;13.90
69007;BMP180;56061;51.748;19.620;2022-09-09T02:32:03;98584.60;;;13.90
69007;BMP180;56061;51.748;19.620;2022-09-09T02:34:40;98581.80;;;13.90
69007;BMP180;56061;51.748;19.620;2022-09-09T02:37:10;98579.40;;;13.90
69007;BMP180;56061;51.748;19.620;2022-09-09T02:39:37;98581.80;;;13.94
69007;BMP180;56061;51.748;19.620;2022-09-09T02:42:04;98583.60;;;14.00
69007;BMP180;56061;51.748;19.620;2022-09-09T02:44:31;98581.20;;;14.00
69007;BMP180;56061;51.748;19.620;2022-09-09T02:47:34;98582.20;;;13.96
69007;BMP180;56061;51.748;19.620;2022-09-09T02:55:51;98584.60;;;14.00
69007;BMP180;56061;51.748;19.620;2022-09-09T02:58:19;98584.80;;;14.00
69007;BMP180;56061;51.748;19.620;2022-09-09T03:00:48;98590.60;;;14.00
69007;BMP180;56061;51.748;19.620;2022-09-09T03:03:17;98595.00;;;14.00
69007;BMP180;56061;51.748;19.620;2022-09-09T03:05:45;98597.80;;;14.08
69007;BMP180;56061;51.748;19.620;2022-09-09T03:08:12;98594.00;;;14.02
69007;BMP180;56061;51.748;19.620;2022-09-09T03:10:39;98593.40;;;14.00
69007;BMP180;56061;51.748;19.620;2022-09-09T03:13:06;98594.20;;;14.10
69007;BMP180;56061;51.748;19.620;2022-09-09T03:15:33;98591.40;;;14.10
69007;BMP180;56061;51.748;19.620;2022-09-09T03:18:00;98592.00;;;14.10
69007;BMP180;56061;51.748;19.620;2022-09-09T03:20:29;98591.00;;;14.02
69007;BMP180;56061;51.748;19.620;2022-09-09T03:22:57;98597.00;;;14.00
69007;BMP180;56061;51.748;19.620;2022-09-09T03:25:25;98591.60;;;14.08
69007;BMP180;56061;51.748;19.620;2022-09-09T03:27:53;98590.40;;;14.10
69007;BMP180;56061;51.748;19.620;2022-09-09T03:30:23;98592.60;;;14.10
69007;BMP180;56061;51.748;19.620;2022-09-09T03:32:50;98590.40;;;14.10
69007;BMP180;56061;51.748;19.620;2022-09-09T03:35:18;98595.40;;;14.10
69007;BMP180;56061;51.748;19.620;2022-09-09T03:37:45;98595.80;;;14.10
69007;BMP180;56061;51.748;19.620;2022-09-09T03:40:12;98596.00;;;14.10
69007;BMP180;56061;51.748;19.620;2022-09-09T03:42:39;98599.40;;;14.10
69007;BMP180;56061;51.748;19.620;2022-09-09T03:45:09;98597.80;;;14.10
69007;BMP180;56061;51.748;19.620;2022-09-09T03:47:37;98597.80;;;14.10
69007;BMP180;56061;51.748;19.620;2022-09-09T03:50:06;98603.40;;;14.10
69007;BMP180;56061;51.748;19.620;2022-09-09T03:52:39;98603.00;;;14.10
69007;BMP180;56061;51.748;19.620;2022-09-09T03:55:07;98601.60;;;14.10
69007;BMP180;56061;51.748;19.620;2022-09-09T03:57:35;98602.00;;;14.20
69007;BMP180;56061;51.748;19.620;2022-09-09T04:00:07;98604.60;;;14.20
69007;BMP180;56061;51.748;19.620;2022-09-09T04:02:34;98605.20;;;14.22
69007;BMP180;56061;51.748;19.620;2022-09-09T04:05:00;98605.80;;;14.30
69007;BMP180;56061;51.748;19.620;2022-09-09T04:07:27;98605.40;;;14.28
69007;BMP180;56061;51.748;19.620;2022-09-09T04:09:54;98604.00;;;14.22
69007;BMP180;56061;51.748;19.620;2022-09-09T04:12:21;98607.40;;;14.20
69007;BMP180;56061;51.748;19.620;2022-09-09T04:14:48;98606.40;;;14.20
69007;BMP180;56061;51.748;19.620;2022-09-09T04:17:15;98611.80;;;14.30
69007;BMP180;56061;51.748;19.620;2022-09-09T04:19:41;98609.20;;;14.30
69007;BMP180;56061;51.748;19.620;2022-09-09T04:22:08;98613.00;;;14.30
69007;BMP180;56061;51.748;19.620;2022-09-09T04:24:35;98609.80;;;14.30
69007;BMP180;56061;51.748;19.620;2022-09-09T04:27:02;98609.00;;;14.38
69007;BMP180;56061;51.748;19.620;2022-09-09T04:29:28;98609.40;;;14.40
69007;BMP180;56061;51.748;19.620;2022-09-09T04:31:55;98613.20;;;14.40
69007;BMP180;56061;51.748;19.620;2022-09-09T04:34:21;98613.80;;;14.40
69007;BMP180;56061;51.748;19.620;2022-09-09T04:36:48;98614.20;;;14.50
69007;BMP180;56061;51.748;19.620;2022-09-09T04:39:15;98618.40;;;14.50
69007;BMP180;56061;51.748;19.620;2022-09-09T04:41:41;98616.00;;;14.50
69007;BMP180;56061;51.748;19.620;2022-09-09T04:44:08;98615.80;;;14.60
69007;BMP180;56061;51.748;19.620;2022-09-09T04:46:35;98613.40;;;14.60
69007;BMP180;56061;51.748;19.620;2022-09-09T04:49:02;98611.80;;;14.60
69007;BMP180;56061;51.748;19.620;2022-09-09T04:51:29;98615.40;;;14.60
69007;BMP180;56061;51.748;19.620;2022-09-09T04:53:57;98615.20;;;14.70
69007;BMP180;56061;51.748;19.620;2022-09-09T04:56:24;98616.60;;;14.70
69007;BMP180;56061;51.748;19.620;2022-09-09T04:58:53;98617.00;;;14.80
69007;BMP180;56061;51.748;19.620;2022-09-09T05:01:22;98619.60;;;14.80
69007;BMP180;56061;51.748;19.620;2022-09-09T05:03:50;98616.40;;;14.80
69007;BMP180;56061;51.748;19.620;2022-09-09T05:06:20;98615.80;;;14.90
69007;BMP180;56061;51.748;19.620;2022-09-09T05:08:47;98618.00;;;14.90
69007;BMP180;56061;51.748;19.620;2022-09-09T05:11:22;98619.80;;;14.92
69007;BMP180;56061;51.748;19.620;2022-09-09T05:13:51;98621.00;;;15.00
69007;BMP180;56061;51.748;19.620;2022-09-09T05:16:19;98619.80;;;15.00
69007;BMP180;56061;51.748;19.620;2022-09-09T05:18:46;98622.40;;;15.00
69007;BMP180;56061;51.748;19.620;2022-09-09T05:21:18;98624.40;;;15.10
69007;BMP180;56061;51.748;19.620;2022-09-09T05:23:45;98619.80;;;15.10
69007;BMP180;56061;51.748;19.620;2022-09-09T05:26:18;98619.80;;;15.20
69007;BMP180;56061;51.748;19.620;2022-09-09T05:28:46;98627.00;;;15.20
69007;BMP180;56061;51.748;19.620;2022-09-09T05:31:16;98624.00;;;15.30
69007;BMP180;56061;51.748;19.620;2022-09-09T05:33:45;98626.20;;;15.30
69007;BMP180;56061;51.748;19.620;2022-09-09T05:36:16;98626.40;;;15.40
69007;BMP180;56061;51.748;19.620;2022-09-09T05:38:44;98629.00;;;15.40
69007;BMP180;56061;51.748;19.620;2022-09-09T05:41:11;98629.80;;;15.40
69007;BMP180;56061;51.748;19.620;2022-09-09T05:43:38;98638.40;;;15.46
69007;BMP180;56061;51.748;19.620;2022-09-09T05:46:08;98635.80;;;15.50
69007;BMP180;56061;51.748;19.620;2022-09-09T05:48:38;98634.80;;;15.58
69007;BMP180;56061;51.748;19.620;2022-09-09T05:51:08;98634.00;;;15.60
69007;BMP180;56061;51.748;19.620;2022-09-09T05:53:36;98641.00;;;15.70
69007;BMP180;56061;51.748;19.620;2022-09-09T05:56:06;98637.20;;;15.72
69007;BMP180;56061;51.748;19.620;2022-09-09T05:58:34;98644.40;;;15.80
69007;BMP180;56061;51.748;19.620;2022-09-09T06:01:04;98650.00;;;15.80
69007;BMP180;56061;51.748;19.620;2022-09-09T06:03:31;98652.20;;;15.90
69007;BMP180;56061;51.748;19.620;2022-09-09T06:06:01;98649.20;;;15.90
69007;BMP180;56061;51.748;19.620;2022-09-09T06:08:34;98647.20;;;15.90
69007;BMP180;56061;51.748;19.620;2022-09-09T06:11:06;98651.60;;;15.92
69007;BMP180;56061;51.748;19.620;2022-09-09T06:13:33;98655.40;;;15.90
69007;BMP180;56061;51.748;19.620;2022-09-09T06:16:00;98656.40;;;15.90
69007;BMP180;56061;51.748;19.620;2022-09-09T06:18:27;98658.80;;;15.90
69007;BMP180;56061;51.748;19.620;2022-09-09T06:20:59;98659.20;;;16.00
69007;BMP180;56061;51.748;19.620;2022-09-09T06:23:28;98663.20;;;16.10
69007;BMP180;56061;51.748;19.620;2022-09-09T06:26:29;98660.60;;;16.10
69007;BMP180;56061;51.748;19.620;2022-09-09T06:28:57;98661.40;;;16.26
69007;BMP180;56061;51.748;19.620;2022-09-09T06:31:28;98658.60;;;16.30
69007;BMP180;56061;51.748;19.620;2022-09-09T06:33:58;98663.20;;;16.40
69007;BMP180;56061;51.748;19.620;2022-09-09T06:36:28;98660.40;;;16.50
69007;BMP180;56061;51.748;19.620;2022-09-09T06:38:55;98656.40;;;16.60
69007;BMP180;56061;51.748;19.620;2022-09-09T06:41:25;98659.80;;;16.70
69007;BMP180;56061;51.748;19.620;2022-09-09T06:43:53;98662.80;;;16.78
69007;BMP180;56061;51.748;19.620;2022-09-09T06:46:25;98663.00;;;16.90
69007;BMP180;56061;51.748;19.620;2022-09-09T06:48:55;98666.20;;;16.94
69007;BMP180;56061;51.748;19.620;2022-09-09T06:51:27;98670.80;;;17.00
69007;BMP180;56061;51.748;19.620;2022-09-09T06:53:57;98671.00;;;17.00
69007;BMP180;56061;51.748;19.620;2022-09-09T06:59:00;98677.00;;;17.00
69007;BMP180;56061;51.748;19.620;2022-09-09T07:01:34;98678.40;;;17.00
69007;BMP180;56061;51.748;19.620;2022-09-09T07:04:03;98679.80;;;17.10
69007;BMP180;56061;51.748;19.620;2022-09-09T07:06:37;98678.40;;;17.10
69007;BMP180;56061;51.748;19.620;2022-09-09T07:09:08;98682.20;;;17.30
69007;BMP180;56061;51.748;19.620;2022-09-09T07:11:40;98684.00;;;17.40
69007;BMP180;56061;51.748;19.620;2022-09-09T07:14:08;98680.80;;;17.50
69007;BMP180;56061;51.748;19.620;2022-09-09T07:16:35;98681.80;;;17.50
69007;BMP180;56061;51.748;19.620;2022-09-09T07:19:04;98680.20;;;17.60
69007;BMP180;56061;51.748;19.620;2022-09-09T07:21:33;98682.80;;;17.80
69007;BMP180;56061;51.748;19.620;2022-09-09T07:24:00;98686.60;;;17.90
69007;BMP180;56061;51.748;19.620;2022-09-09T07:26:30;98689.80;;;18.00
69007;BMP180;56061;51.748;19.620;2022-09-09T07:28:57;98693.60;;;18.10
69007;BMP180;56061;51.748;19.620;2022-09-09T07:31:28;98695.40;;;18.10
69007;BMP180;56061;51.748;19.620;2022-09-09T07:33:58;98692.80;;;18.00
69007;BMP180;56061;51.748;19.620;2022-09-09T07:36:28;98693.80;;;18.00
69007;BMP180;56061;51.748;19.620;2022-09-09T07:39:09;98701.20;;;18.00
69007;BMP180;56061;51.748;19.620;2022-09-09T07:41:43;98704.40;;;18.06
69007;BMP180;56061;51.748;19.620;2022-09-09T07:44:17;98707.60;;;18.10
69007;BMP180;56061;51.748;19.620;2022-09-09T07:46:44;98707.60;;;18.10
69007;BMP180;56061;51.748;19.620;2022-09-09T07:49:12;98715.40;;;18.10
69007;BMP180;56061;51.748;19.620;2022-09-09T07:51:42;98716.60;;;18.10
69007;BMP180;56061;51.748;19.620;2022-09-09T07:54:12;98710.20;;;18.20
69007;BMP180;56061;51.748;19.620;2022-09-09T07:56:41;98706.40;;;18.20
69007;BMP180;56061;51.748;19.620;2022-09-09T07:59:08;98713.20;;;18.20
69007;BMP180;56061;51.748;19.620;2022-09-09T08:01:39;98718.00;;;18.30
69007;BMP180;56061;51.748;19.620;2022-09-09T08:04:14;98719.60;;;18.30
69007;BMP180;56061;51.748;19.620;2022-09-09T08:06:57;98726.60;;;18.40
69007;BMP180;56061;51.748;19.620;2022-09-09T08:09:25;98727.40;;;18.50
69007;BMP180;56061;51.748;19.620;2022-09-09T08:11:53;98728.80;;;18.58
69007;BMP180;56061;51.748;19.620;2022-09-09T08:14:31;98734.80;;;18.60
69007;BMP180;56061;51.748;19.620;2022-09-09T08:16:57;98735.20;;;18.70
69007;BMP180;56061;51.748;19.620;2022-09-09T08:19:24;98733.60;;;18.80
69007;BMP180;56061;51.748;19.620;2022-09-09T08:21:51;98735.00;;;18.84
69007;BMP180;56061;51.748;19.620;2022-09-09T08:24:18;98737.20;;;19.00
69007;BMP180;56061;51.748;19.620;2022-09-09T08:26:54;98736.40;;;19.10
69007;BMP180;56061;51.748;19.620;2022-09-09T08:29:23;98738.80;;;19.20
69007;BMP180;56061;51.748;19.620;2022-09-09T08:31:53;98734.80;;;19.22
69007;BMP180;56061;51.748;19.620;2022-09-09T08:34:21;98735.40;;;19.32
69007;BMP180;56061;51.748;19.620;2022-09-09T08:37:08;98739.80;;;19.56
69007;BMP180;56061;51.748;19.620;2022-09-09T08:39:35;98736.20;;;19.80
69007;BMP180;56061;51.748;19.620;2022-09-09T08:42:19;98736.40;;;19.90
69007;BMP180;56061;51.748;19.620;2022-09-09T08:48:27;98731.00;;;19.90
69007;BMP180;56061;51.748;19.620;2022-09-09T08:50:56;98726.80;;;20.00
69007;BMP180;56061;51.748;19.620;2022-09-09T08:53:37;98727.60;;;20.10
69007;BMP180;56061;51.748;19.620;2022-09-09T08:56:16;98731.80;;;20.20
69007;BMP180;56061;51.748;19.620;2022-09-09T08:58:51;98731.80;;;20.20
69007;BMP180;56061;51.748;19.620;2022-09-09T09:04:38;98737.20;;;20.20
69007;BMP180;56061;51.748;19.620;2022-09-09T09:08:02;98735.60;;;20.20
69007;BMP180;56061;51.748;19.620;2022-09-09T09:10:50;98731.80;;;20.46
69007;BMP180;56061;51.748;19.620;2022-09-09T09:13:44;98733.00;;;20.62
69007;BMP180;56061;51.748;19.620;2022-09-09T09:16:53;98734.00;;;20.80
69007;BMP180;56061;51.748;19.620;2022-09-09T09:19:21;98743.20;;;20.80
69007;BMP180;56061;51.748;19.620;2022-09-09T09:22:20;98741.40;;;20.76
69007;BMP180;56061;51.748;19.620;2022-09-09T09:28:24;98740.60;;;20.50
69007;BMP180;56061;51.748;19.620;2022-09-09T09:31:08;98740.40;;;20.40
69007;BMP180;56061;51.748;19.620;2022-09-09T09:33:51;98747.20;;;20.30
69007;BMP180;56061;51.748;19.620;2022-09-09T09:36:24;98750.00;;;20.30
69007;BMP180;56061;51.748;19.620;2022-09-09T09:39:03;98752.20;;;20.20
69007;BMP180;56061;51.748;19.620;2022-09-09T09:41:52;98747.60;;;20.30
69007;BMP180;56061;51.748;19.620;2022-09-09T09:44:37;98747.20;;;20.40
69007;BMP180;56061;51.748;19.620;2022-09-09T09:49:59;98746.60;;;20.60
69007;BMP180;56061;51.748;19.620;2022-09-09T09:52:41;98747.80;;;20.62
69007;BMP180;56061;51.748;19.620;2022-09-09T09:55:13;98751.00;;;20.50
69007;BMP180;56061;51.748;19.620;2022-09-09T09:57:40;98755.40;;;20.30
69007;BMP180;56061;51.748;19.620;2022-09-09T10:00:23;98758.40;;;20.20
69007;BMP180;56061;51.748;19.620;2022-09-09T10:02:50;98764.20;;;20.04
69007;BMP180;56061;51.748;19.620;2022-09-09T10:05:25;98761.20;;;20.10
69007;BMP180;56061;51.748;19.620;2022-09-09T10:08:17;98760.20;;;20.30
69007;BMP180;56061;51.748;19.620;2022-09-09T10:14:19;98760.60;;;20.62
69007;BMP180;56061;51.748;19.620;2022-09-09T10:20:12;98765.20;;;20.80
69007;BMP180;56061;51.748;19.620;2022-09-09T10:29:46;98773.40;;;20.60
69007;BMP180;56061;51.748;19.620;2022-09-09T10:35:34;98781.00;;;20.70
69007;BMP180;56061;51.748;19.620;2022-09-09T10:38:20;98784.40;;;20.90
69007;BMP180;56061;51.748;19.620;2022-09-09T10:44:02;98789.40;;;20.92
69007;BMP180;56061;51.748;19.620;2022-09-09T10:47:44;98793.60;;;21.00
69007;BMP180;56061;51.748;19.620;2022-09-09T10:50:50;98799.00;;;21.10
69007;BMP180;56061;51.748;19.620;2022-09-09T10:53:55;98792.60;;;21.28
69007;BMP180;56061;51.748;19.620;2022-09-09T10:56:58;98791.00;;;21.40
69007;BMP180;56061;51.748;19.620;2022-09-09T10:59:33;98790.40;;;21.50
69007;BMP180;56061;51.748;19.620;2022-09-09T11:02:27;98794.00;;;21.60
69007;BMP180;56061;51.748;19.620;2022-09-09T11:05:07;98794.60;;;21.70
69007;BMP180;56061;51.748;19.620;2022-09-09T11:11:02;98799.60;;;21.80
69007;BMP180;56061;51.748;19.620;2022-09-09T11:16:28;98807.20;;;21.90
69007;BMP180;56061;51.748;19.620;2022-09-09T11:19:21;98820.00;;;22.00
69007;BMP180;56061;51.748;19.620;2022-09-09T11:21:52;98819.40;;;22.06
69007;BMP180;56061;51.748;19.620;2022-09-09T11:24:35;98822.00;;;22.10
69007;BMP180;56061;51.748;19.620;2022-09-09T11:27:49;98824.20;;;22.18
69007;BMP180;56061;51.748;19.620;2022-09-09T11:40:07;98805.20;;;22.12
69007;BMP180;56061;51.748;19.620;2022-09-09T11:42:36;98803.00;;;22.10
69007;BMP180;56061;51.748;19.620;2022-09-09T11:45:26;98798.40;;;22.10
69007;BMP180;56061;51.748;19.620;2022-09-09T11:47:58;98797.20;;;22.10
69007;BMP180;56061;51.748;19.620;2022-09-09T11:53:21;98792.20;;;21.80
69007;BMP180;56061;51.748;19.620;2022-09-09T11:56:04;98795.60;;;21.72
69007;BMP180;56061;51.748;19.620;2022-09-09T11:58:42;98790.00;;;21.62
69007;BMP180;56061;51.748;19.620;2022-09-09T12:01:40;98790.40;;;21.66
69007;BMP180;56061;51.748;19.620;2022-09-09T12:10:05;98785.00;;;21.70
69007;BMP180;56061;51.748;19.620;2022-09-09T12:12:36;98781.20;;;21.80
69007;BMP180;56061;51.748;19.620;2022-09-09T12:18:01;98769.40;;;22.20
69007;BMP180;56061;51.748;19.620;2022-09-09T12:20:36;98764.00;;;22.52
69007;BMP180;56061;51.748;19.620;2022-09-09T12:26:05;98752.40;;;23.00
69007;BMP180;56061;51.748;19.620;2022-09-09T12:32:32;98760.40;;;23.40
69007;BMP180;56061;51.748;19.620;2022-09-09T12:35:04;98766.40;;;23.40
69007;BMP180;56061;51.748;19.620;2022-09-09T12:37:38;98772.00;;;23.50
69007;BMP180;56061;51.748;19.620;2022-09-09T12:40:25;98765.60;;;23.48
69007;BMP180;56061;51.748;19.620;2022-09-09T12:42:52;98770.00;;;23.40
69007;BMP180;56061;51.748;19.620;2022-09-09T12:45:25;98780.60;;;23.44
69007;BMP180;56061;51.748;19.620;2022-09-09T12:48:29;98785.60;;;23.40
69007;BMP180;56061;51.748;19.620;2022-09-09T12:50:57;98784.60;;;23.40
69007;BMP180;56061;51.748;19.620;2022-09-09T12:53:36;98783.00;;;23.50
69007;BMP180;56061;51.748;19.620;2022-09-09T12:56:26;98780.40;;;23.60
69007;BMP180;56061;51.748;19.620;2022-09-09T12:58:57;98775.40;;;23.60
69007;BMP180;56061;51.748;19.620;2022-09-09T13:01:30;98769.80;;;23.60
69007;BMP180;56061;51.748;19.620;2022-09-09T13:04:26;98778.80;;;23.70
69007;BMP180;56061;51.748;19.620;2022-09-09T13:06:53;98779.20;;;23.80
69007;BMP180;56061;51.748;19.620;2022-09-09T13:09:20;98778.20;;;23.86
69007;BMP180;56061;51.748;19.620;2022-09-09T13:11:56;98773.20;;;23.94
69007;BMP180;56061;51.748;19.620;2022-09-09T13:14:32;98765.20;;;24.14
69007;BMP180;56061;51.748;19.620;2022-09-09T13:17:03;98760.80;;;24.40
69007;BMP180;56061;51.748;19.620;2022-09-09T13:19:54;98768.00;;;24.60
69007;BMP180;56061;51.748;19.620;2022-09-09T13:22:36;98769.40;;;24.70
69007;BMP180;56061;51.748;19.620;2022-09-09T13:25:27;98765.60;;;24.60
69007;BMP180;56061;51.748;19.620;2022-09-09T13:28:21;98765.20;;;24.60
69007;BMP180;56061;51.748;19.620;2022-09-09T13:31:23;98761.20;;;24.54
69007;BMP180;56061;51.748;19.620;2022-09-09T13:33:50;98763.80;;;24.50
69007;BMP180;56061;51.748;19.620;2022-09-09T13:36:41;98767.00;;;24.48
69007;BMP180;56061;51.748;19.620;2022-09-09T13:39:17;98770.60;;;24.34
69007;BMP180;56061;51.748;19.620;2022-09-09T13:41:46;98768.40;;;24.30
69007;BMP180;56061;51.748;19.620;2022-09-09T13:44:36;98769.80;;;24.40
69007;BMP180;56061;51.748;19.620;2022-09-09T13:47:18;98772.40;;;24.50
69007;BMP180;56061;51.748;19.620;2022-09-09T13:49:46;98766.00;;;24.30
69007;BMP180;56061;51.748;19.620;2022-09-09T13:52:34;98770.60;;;24.14
69007;BMP180;56061;51.748;19.620;2022-09-09T13:55:00;98768.60;;;23.90
69007;BMP180;56061;51.748;19.620;2022-09-09T13:57:27;98763.80;;;23.80
69007;BMP180;56061;51.748;19.620;2022-09-09T13:59:55;98768.60;;;23.70
69007;BMP180;56061;51.748;19.620;2022-09-09T14:02:37;98770.20;;;23.60
69007;BMP180;56061;51.748;19.620;2022-09-09T14:05:05;98769.80;;;23.54
69007;BMP180;56061;51.748;19.620;2022-09-09T14:07:32;98770.20;;;23.60
69007;BMP180;56061;51.748;19.620;2022-09-09T14:09:58;98774.60;;;23.60
69007;BMP180;56061;51.748;19.620;2022-09-09T14:12:26;98766.00;;;23.50
69007;BMP180;56061;51.748;19.620;2022-09-09T14:15:13;98764.40;;;23.60
69007;BMP180;56061;51.748;19.620;2022-09-09T14:17:41;98761.00;;;23.60
69007;BMP180;56061;51.748;19.620;2022-09-09T14:20:09;98765.60;;;23.60
69007;BMP180;56061;51.748;19.620;2022-09-09T14:22:56;98767.40;;;23.50
69007;BMP180;56061;51.748;19.620;2022-09-09T14:25:28;98774.20;;;23.30
69007;BMP180;56061;51.748;19.620;2022-09-09T14:27:55;98775.80;;;23.20
69007;BMP180;56061;51.748;19.620;2022-09-09T14:30:22;98771.20;;;23.10
69007;BMP180;56061;51.748;19.620;2022-09-09T14:32:57;98778.20;;;22.96
69007;BMP180;56061;51.748;19.620;2022-09-09T14:35:24;98777.20;;;22.80
69007;BMP180;56061;51.748;19.620;2022-09-09T14:37:50;98771.40;;;22.70
69007;BMP180;56061;51.748;19.620;2022-09-09T14:40:17;98772.80;;;22.68
69007;BMP180;56061;51.748;19.620;2022-09-09T14:42:44;98769.60;;;22.60
69007;BMP180;56061;51.748;19.620;2022-09-09T14:45:23;98763.60;;;22.56
69007;BMP180;56061;51.748;19.620;2022-09-09T14:47:51;98757.80;;;22.50
69007;BMP180;56061;51.748;19.620;2022-09-09T14:50:19;98756.80;;;22.50
69007;BMP180;56061;51.748;19.620;2022-09-09T14:52:46;98766.00;;;22.50
69007;BMP180;56061;51.748;19.620;2022-09-09T14:55:14;98770.00;;;22.50
69007;BMP180;56061;51.748;19.620;2022-09-09T14:58:03;98767.80;;;22.52
69007;BMP180;56061;51.748;19.620;2022-09-09T15:00:30;98763.40;;;22.70
69007;BMP180;56061;51.748;19.620;2022-09-09T15:02:56;98760.40;;;22.60
69007;BMP180;56061;51.748;19.620;2022-09-09T15:05:23;98764.00;;;22.60
69007;BMP180;56061;51.748;19.620;2022-09-09T15:08:15;98754.00;;;22.60
69007;BMP180;56061;51.748;19.620;2022-09-09T15:10:42;98751.60;;;22.70
69007;BMP180;56061;51.748;19.620;2022-09-09T15:13:11;98751.60;;;22.78
69007;BMP180;56061;51.748;19.620;2022-09-09T15:15:46;98754.60;;;22.70
69007;BMP180;56061;51.748;19.620;2022-09-09T15:18:13;98758.40;;;22.56
69007;BMP180;56061;51.748;19.620;2022-09-09T15:20:45;98764.20;;;22.40
69007;BMP180;56061;51.748;19.620;2022-09-09T15:23:13;98773.60;;;22.30
69007;BMP180;56061;51.748;19.620;2022-09-09T15:26:02;98771.20;;;22.22
69007;BMP180;56061;51.748;19.620;2022-09-09T15:28:29;98768.60;;;22.20
69007;BMP180;56061;51.748;19.620;2022-09-09T15:30:58;98770.80;;;22.10
69007;BMP180;56061;51.748;19.620;2022-09-09T15:33:26;98768.60;;;22.00
69007;BMP180;56061;51.748;19.620;2022-09-09T15:36:24;98768.80;;;21.90
69007;BMP180;56061;51.748;19.620;2022-09-09T15:38:52;98765.80;;;21.80
69007;BMP180;56061;51.748;19.620;2022-09-09T15:41:21;98762.20;;;21.70
69007;BMP180;56061;51.748;19.620;2022-09-09T15:43:57;98759.20;;;21.60
69007;BMP180;56061;51.748;19.620;2022-09-09T15:46:36;98756.60;;;21.50
69007;BMP180;56061;51.748;19.620;2022-09-09T15:49:18;98753.80;;;21.48
69007;BMP180;56061;51.748;19.620;2022-09-09T15:52:10;98756.20;;;21.40
69007;BMP180;56061;51.748;19.620;2022-09-09T15:54:37;98757.40;;;21.30
69007;BMP180;56061;51.748;19.620;2022-09-09T15:57:10;98756.20;;;21.22
69007;BMP180;56061;51.748;19.620;2022-09-09T15:59:45;98764.40;;;21.20
69007;BMP180;56061;51.748;19.620;2022-09-09T16:02:11;98764.80;;;21.10
69007;BMP180;56061;51.748;19.620;2022-09-09T16:04:38;98766.80;;;21.00
69007;BMP180;56061;51.748;19.620;2022-09-09T16:07:05;98764.20;;;20.84
69007;BMP180;56061;51.748;19.620;2022-09-09T16:09:33;98762.00;;;20.70
69007;BMP180;56061;51.748;19.620;2022-09-09T16:12:26;98762.80;;;20.60
69007;BMP180;56061;51.748;19.620;2022-09-09T16:14:53;98770.40;;;20.60
69007;BMP180;56061;51.748;19.620;2022-09-09T16:17:19;98772.40;;;20.60
69007;BMP180;56061;51.748;19.620;2022-09-09T16:20:07;98776.40;;;20.50
69007;BMP180;56061;51.748;19.620;2022-09-09T16:22:34;98772.80;;;20.50
69007;BMP180;56061;51.748;19.620;2022-09-09T16:25:01;98771.20;;;20.40